Time;durP1;ratioP1;P1;durP2;ratioP2;P2;SDS_P1;SDS_P2;PMS_P1;PMS_P2;Temp;Humidity;BMP_temperature;BMP_pressure;BME280_temperature;BME280_humidity;BME280_pressure;Samples;Min_cycle;Max_cycle;Signal;HPM_P1;HPM_P2
2021/06/20 00:00:25;;;;;;;0.10;0.10;;;;;;;;;;4945291;29;20048;-86
2021/06/20 00:02:51;;;;;;;0.10;0.10;;;;;;;;;;4915637;29;20067;-86
2021/06/20 00:05:19;;;;;;;0.10;0.10;;;;;;;;;;4946142;29;20043;-85
2021/06/20 00:07:45;;;;;;;0.15;0.15;;;;;;;;;;4929970;29;20044;-86
2021/06/20 00:10:12;;;;;;;0.30;0.30;;;;;;;;;;4945891;29;20060;-86
2021/06/20 00:12:38;;;;;;;0.35;0.35;;;;;;;;;;4945905;29;20067;-86
2021/06/20 00:15:05;;;;;;;0.30;0.30;;;;;;;;;;4930050;29;20099;-85
2021/06/20 00:17:31;;;;;;;0.10;0.10;;;;;;;;;;4945983;28;20087;-86
2021/06/20 00:19:57;;;;;;;0.38;0.38;;;;;;;;;;4931622;29;20048;-89
2021/06/20 00:22:23;;;;;;;0.10;0.10;;;;;;;;;;4949564;29;20051;-88
2021/06/20 00:24:49;;;;;;;0.10;0.10;;;;;;;;;;4949627;29;20044;-89
2021/06/20 00:27:15;;;;;;;0.30;0.15;;;;;;;;;;4949562;28;20047;-88
2021/06/20 00:29:41;;;;;;;0.10;0.10;;;;;;;;;;4933982;29;20040;-91
2021/06/20 00:32:07;;;;;;;0.10;0.10;;;;;;;;;;4933833;29;20052;-90
2021/06/20 00:34:33;;;;;;;0.10;0.10;;;;;;;;;;4933860;29;20036;-90
2021/06/20 00:37:00;;;;;;;0.10;0.10;;;;;;;;;;4933703;29;20044;-90
2021/06/20 00:39:26;;;;;;;0.10;0.10;;;;;;;;;;4949499;29;20446;-89
2021/06/20 00:41:52;;;;;;;0.10;0.10;;;;;;;;;;4933715;29;20044;-90
2021/06/20 00:44:18;;;;;;;0.10;0.10;;;;;;;;;;4933991;29;20040;-90
2021/06/20 00:46:44;;;;;;;0.10;0.10;;;;;;;;;;4934090;29;20048;-92
2021/06/20 00:49:10;;;;;;;0.10;0.10;;;;;;;;;;4933980;29;20457;-91
2021/06/20 00:51:36;;;;;;;0.15;0.15;;;;;;;;;;4933835;29;20043;-90
2021/06/20 00:54:02;;;;;;;0.10;0.10;;;;;;;;;;4933537;29;20060;-90
2021/06/20 00:56:28;;;;;;;0.10;0.10;;;;;;;;;;4933339;29;20048;-90
2021/06/20 00:59:02;;;;;;;0.10;0.10;;;;;;;;;;4933384;29;20044;-90
2021/06/20 01:01:31;;;;;;;0.10;0.10;;;;;;;;;;4947237;29;20122;-89
2021/06/20 01:03:57;;;;;;;0.10;0.10;;;;;;;;;;4949288;29;20039;-90
2021/06/20 01:06:23;;;;;;;0.10;0.10;;;;;;;;;;4933386;29;20040;-90
2021/06/20 01:08:50;;;;;;;0.10;0.10;;;;;;;;;;4948950;29;20071;-90
2021/06/20 01:11:16;;;;;;;0.10;0.10;;;;;;;;;;4933382;29;20498;-91
2021/06/20 01:13:44;;;;;;;0.10;0.10;;;;;;;;;;4917957;29;20040;-90
2021/06/20 01:16:10;;;;;;;0.20;0.20;;;;;;;;;;4949212;29;20087;-89
2021/06/20 01:18:36;;;;;;;0.10;0.10;;;;;;;;;;4932788;29;20490;-89
2021/06/20 01:21:02;;;;;;;0.10;0.10;;;;;;;;;;4948614;29;20044;-90
2021/06/20 01:23:28;;;;;;;0.10;0.10;;;;;;;;;;4932698;29;20044;-91
2021/06/20 01:25:55;;;;;;;0.10;0.10;;;;;;;;;;4948713;29;20126;-90
2021/06/20 01:28:26;;;;;;;0.10;0.10;;;;;;;;;;4934917;29;20079;-95
2021/06/20 01:30:57;;;;;;;0.10;0.10;;;;;;;;;;4916315;29;20048;-85
2021/06/20 01:33:23;;;;;;;0.10;0.10;;;;;;;;;;4931892;29;20039;-85
2021/06/20 01:35:49;;;;;;;0.52;0.52;;;;;;;;;;4916486;29;20084;-85
2021/06/20 01:38:17;;;;;;;0.40;0.40;;;;;;;;;;4917658;29;20454;-86
2021/06/20 01:40:43;;;;;;;0.45;0.45;;;;;;;;;;4948104;29;20212;-85
2021/06/20 01:43:09;;;;;;;0.65;0.65;;;;;;;;;;4948077;29;20072;-85
2021/06/20 01:45:36;;;;;;;0.10;0.10;;;;;;;;;;4948064;29;20047;-85
2021/06/20 01:48:03;;;;;;;0.10;0.10;;;;;;;;;;4916307;29;20047;-85
2021/06/20 01:50:30;;;;;;;0.10;0.10;;;;;;;;;;4931882;29;20107;-86
2021/06/20 01:53:12;;;;;;;0.20;0.20;;;;;;;;;;4931698;29;20040;-86
2021/06/20 01:55:39;;;;;;;0.32;0.32;;;;;;;;;;4947716;29;20047;-86
2021/06/20 01:58:06;;;;;;;0.20;0.20;;;;;;;;;;4947615;28;20099;-85
2021/06/20 02:00:32;;;;;;;0.20;0.20;;;;;;;;;;4931629;29;20040;-85
2021/06/20 02:03:04;;;;;;;0.10;0.10;;;;;;;;;;4917256;29;20247;-85
2021/06/20 02:05:30;;;;;;;0.68;0.68;;;;;;;;;;4915875;29;20418;-85
2021/06/20 02:07:56;;;;;;;0.20;0.20;;;;;;;;;;4947520;28;20040;-85
2021/06/20 02:10:22;;;;;;;0.10;0.10;;;;;;;;;;4931370;29;20056;-84
2021/06/20 02:12:48;;;;;;;0.20;0.20;;;;;;;;;;4931843;29;20456;-85
2021/06/20 02:15:16;;;;;;;0.38;0.38;;;;;;;;;;4915801;29;20565;-85
2021/06/20 02:17:42;;;;;;;0.73;0.32;;;;;;;;;;4946894;28;20036;-85
2021/06/20 02:20:12;;;;;;;0.20;0.20;;;;;;;;;;4916905;29;20040;-85
2021/06/20 02:22:39;;;;;;;0.10;0.10;;;;;;;;;;4947267;29;20075;-85
2021/06/20 02:25:05;;;;;;;0.40;0.40;;;;;;;;;;4947118;29;20040;-85
2021/06/20 02:27:31;;;;;;;0.28;0.28;;;;;;;;;;4931146;29;20043;-85
2021/06/20 02:29:57;;;;;;;0.20;0.20;;;;;;;;;;4915574;29;20546;-85
2021/06/20 02:32:23;;;;;;;0.30;0.30;;;;;;;;;;4947052;29;20434;-85
2021/06/20 02:34:49;;;;;;;0.10;0.10;;;;;;;;;;4947215;29;20040;-85
2021/06/20 02:37:16;;;;;;;4.50;0.47;;;;;;;;;;4916463;29;20127;-85
2021/06/20 02:39:44;;;;;;;0.43;0.43;;;;;;;;;;4946772;29;20165;-85
2021/06/20 02:42:10;;;;;;;0.40;0.40;;;;;;;;;;4946190;28;20050;-85
2021/06/20 02:44:36;;;;;;;0.20;0.20;;;;;;;;;;4931049;29;20048;-85
2021/06/20 02:47:03;;;;;;;0.10;0.10;;;;;;;;;;4946632;28;20084;-86
2021/06/20 02:49:30;;;;;;;0.10;0.10;;;;;;;;;;4916498;29;20123;-86
2021/06/20 02:51:56;;;;;;;0.20;0.20;;;;;;;;;;4916304;29;20119;-85
2021/06/20 02:54:22;;;;;;;0.38;0.38;;;;;;;;;;4946899;29;20099;-85
2021/06/20 02:56:48;;;;;;;0.10;0.10;;;;;;;;;;4946865;28;20067;-85
2021/06/20 02:59:14;;;;;;;0.30;0.30;;;;;;;;;;4930835;29;20048;-85
2021/06/20 03:01:40;;;;;;;0.20;0.20;;;;;;;;;;4946569;29;20051;-86
2021/06/20 03:04:06;;;;;;;0.20;0.20;;;;;;;;;;4930742;29;20059;-85
2021/06/20 03:06:32;;;;;;;0.10;0.10;;;;;;;;;;4916065;29;20111;-86
2021/06/20 03:08:58;;;;;;;0.10;0.10;;;;;;;;;;4916000;29;20048;-85
2021/06/20 03:11:24;;;;;;;0.20;0.20;;;;;;;;;;4946534;29;20044;-84
2021/06/20 03:13:50;;;;;;;0.30;0.30;;;;;;;;;;4946625;29;20047;-85
2021/06/20 03:16:17;;;;;;;0.20;0.20;;;;;;;;;;4930398;29;20054;-86
2021/06/20 03:18:43;;;;;;;0.20;0.20;;;;;;;;;;4930457;29;20526;-86
2021/06/20 03:21:10;;;;;;;0.20;0.20;;;;;;;;;;4916028;29;20532;-85
2021/06/20 03:23:36;;;;;;;0.20;0.20;;;;;;;;;;4930508;29;20071;-86
2021/06/20 03:26:02;;;;;;;0.57;0.57;;;;;;;;;;4930599;29;20107;-85
2021/06/20 03:28:28;;;;;;;0.10;0.10;;;;;;;;;;4915919;29;20051;-85
2021/06/20 03:30:54;;;;;;;0.10;0.10;;;;;;;;;;4915895;29;20410;-85
2021/06/20 03:33:20;;;;;;;0.32;0.20;;;;;;;;;;4946455;29;20445;-85
2021/06/20 03:35:46;;;;;;;0.15;0.15;;;;;;;;;;4946322;29;20044;-86
2021/06/20 03:38:12;;;;;;;0.10;0.10;;;;;;;;;;4914524;29;20040;-85
2021/06/20 03:40:40;;;;;;;0.17;0.17;;;;;;;;;;4946163;29;20052;-85
2021/06/20 03:43:06;;;;;;;0.20;0.20;;;;;;;;;;4914651;29;20036;-85
2021/06/20 03:45:32;;;;;;;0.10;0.10;;;;;;;;;;4946191;29;20071;-83
2021/06/20 03:47:58;;;;;;;0.10;0.10;;;;;;;;;;4915789;29;20040;-87
2021/06/20 03:50:25;;;;;;;0.30;0.30;;;;;;;;;;4946337;29;20103;-87
2021/06/20 03:52:51;;;;;;;0.10;0.10;;;;;;;;;;4930272;29;20040;-87
2021/06/20 03:55:17;;;;;;;0.10;0.10;;;;;;;;;;4934035;29;20052;-87
2021/06/20 03:57:43;;;;;;;0.10;0.10;;;;;;;;;;4934024;29;20486;-88
2021/06/20 04:00:10;;;;;;;0.10;0.10;;;;;;;;;;4949965;29;20071;-88
2021/06/20 04:02:36;;;;;;;0.10;0.10;;;;;;;;;;4949946;29;20119;-88
2021/06/20 04:05:03;;;;;;;0.17;0.17;;;;;;;;;;4949881;29;20583;-88
2021/06/20 04:07:29;;;;;;;0.10;0.10;;;;;;;;;;4919271;29;20044;-88
2021/06/20 04:09:55;;;;;;;0.10;0.10;;;;;;;;;;4933828;29;20055;-88
2021/06/20 04:12:21;;;;;;;0.10;0.10;;;;;;;;;;4949541;29;20044;-87
2021/06/20 04:14:47;;;;;;;0.10;0.10;;;;;;;;;;4949703;29;20044;-88
2021/06/20 04:17:13;;;;;;;0.20;0.20;;;;;;;;;;4933741;29;20040;-88
2021/06/20 04:19:39;;;;;;;0.10;0.10;;;;;;;;;;4949695;29;20067;-88
2021/06/20 04:22:05;;;;;;;0.43;0.43;;;;;;;;;;4949588;29;20047;-88
2021/06/20 04:24:32;;;;;;;0.10;0.10;;;;;;;;;;4933399;29;20051;-87
2021/06/20 04:26:58;;;;;;;0.10;0.10;;;;;;;;;;4949407;28;20048;-88
2021/06/20 04:29:24;;;;;;;0.30;0.30;;;;;;;;;;4949646;29;20240;-88
2021/06/20 04:31:50;;;;;;;0.10;0.10;;;;;;;;;;4949389;29;20510;-88
2021/06/20 04:34:16;;;;;;;0.30;0.30;;;;;;;;;;4919365;29;20569;-88
2021/06/20 04:36:42;;;;;;;0.20;0.20;;;;;;;;;;4949930;28;20044;-87
2021/06/20 04:39:09;;;;;;;0.20;0.20;;;;;;;;;;4934366;29;20048;-88
2021/06/20 04:41:37;;;;;;;0.20;0.20;;;;;;;;;;4949642;29;20454;-88
2021/06/20 04:44:05;;;;;;;0.10;0.10;;;;;;;;;;4933808;29;20044;-88
2021/06/20 04:46:33;;;;;;;0.30;0.30;;;;;;;;;;4933209;29;20048;-88
2021/06/20 04:49:00;;;;;;;0.28;0.28;;;;;;;;;;4917999;29;20052;-88
2021/06/20 04:51:28;;;;;;;0.20;0.20;;;;;;;;;;4949167;29;20051;-88
2021/06/20 04:53:54;;;;;;;0.10;0.10;;;;;;;;;;4917602;29;20138;-88
2021/06/20 04:56:20;;;;;;;0.10;0.10;;;;;;;;;;4949154;29;20421;-87
2021/06/20 04:58:46;;;;;;;0.30;0.30;;;;;;;;;;4949575;29;20044;-89
2021/06/20 05:01:12;;;;;;;0.30;0.30;;;;;;;;;;4950174;29;20119;-89
2021/06/20 05:03:38;;;;;;;0.10;0.10;;;;;;;;;;4950026;29;20036;-88
2021/06/20 05:06:04;;;;;;;0.10;0.10;;;;;;;;;;4933028;29;20036;-88
2021/06/20 05:08:30;;;;;;;0.20;0.20;;;;;;;;;;4949614;28;20517;-88
2021/06/20 05:10:56;;;;;;;0.10;0.10;;;;;;;;;;4948861;29;20040;-89
2021/06/20 05:13:22;;;;;;;0.10;0.10;;;;;;;;;;4949232;29;20043;-88
2021/06/20 05:15:48;;;;;;;0.20;0.20;;;;;;;;;;4932974;29;20040;-88
2021/06/20 05:18:15;;;;;;;0.10;0.10;;;;;;;;;;4948833;28;20051;-89
2021/06/20 05:20:41;;;;;;;0.20;0.20;;;;;;;;;;4932921;29;20043;-89
2021/06/20 05:23:08;;;;;;;0.10;0.10;;;;;;;;;;4949358;29;20040;-90
2021/06/20 05:25:34;;;;;;;0.30;0.30;;;;;;;;;;4933333;29;20123;-91
2021/06/20 05:28:00;;;;;;;0.10;0.10;;;;;;;;;;4933059;29;20043;-90
2021/06/20 05:30:27;;;;;;;0.32;0.32;;;;;;;;;;4948975;29;20044;-91
2021/06/20 05:32:54;;;;;;;0.20;0.20;;;;;;;;;;4932883;29;20040;-90
2021/06/20 05:35:20;;;;;;;0.20;0.20;;;;;;;;;;4948592;29;20043;-90
2021/06/20 05:37:46;;;;;;;0.20;0.20;;;;;;;;;;4932682;29;20032;-90
2021/06/20 05:40:12;;;;;;;0.30;0.30;;;;;;;;;;4933041;29;20379;-90
2021/06/20 05:42:45;;;;;;;0.20;0.20;;;;;;;;;;4917155;29;20557;-90
2021/06/20 05:45:11;;;;;;;0.13;0.13;;;;;;;;;;4948720;29;20032;-91
2021/06/20 05:47:37;;;;;;;0.25;0.25;;;;;;;;;;4932631;29;20048;-90
2021/06/20 05:50:03;;;;;;;0.17;0.17;;;;;;;;;;4932691;29;20123;-90
2021/06/20 05:52:29;;;;;;;0.10;0.10;;;;;;;;;;4932303;29;20370;-91
2021/06/20 05:54:55;;;;;;;0.35;0.35;;;;;;;;;;4932461;29;20213;-90
2021/06/20 05:57:21;;;;;;;0.20;0.20;;;;;;;;;;4932517;29;20111;-91
2021/06/20 05:59:47;;;;;;;0.45;0.45;;;;;;;;;;4932499;29;20063;-91
2021/06/20 06:02:13;;;;;;;0.20;0.20;;;;;;;;;;4948440;29;20111;-90
2021/06/20 06:04:41;;;;;;;0.10;0.10;;;;;;;;;;4948019;29;20111;-90
2021/06/20 06:07:07;;;;;;;0.10;0.10;;;;;;;;;;4931935;29;20051;-90
2021/06/20 06:09:35;;;;;;;0.10;0.10;;;;;;;;;;4932135;29;20058;-90
2021/06/20 06:12:01;;;;;;;0.10;0.10;;;;;;;;;;4931595;29;20048;-90
2021/06/20 06:14:27;;;;;;;0.40;0.40;;;;;;;;;;4931747;29;20153;-90
2021/06/20 06:16:53;;;;;;;0.50;0.50;;;;;;;;;;4929983;29;20040;-90
2021/06/20 06:19:19;;;;;;;0.10;0.10;;;;;;;;;;4897855;29;20052;-89
2021/06/20 06:21:45;;;;;;;0.20;0.20;;;;;;;;;;4914374;29;20046;-88
2021/06/20 06:24:11;;;;;;;0.10;0.10;;;;;;;;;;4915515;29;20036;-89
2021/06/20 06:26:38;;;;;;;0.30;0.30;;;;;;;;;;4931520;29;20207;-88
2021/06/20 06:29:04;;;;;;;0.20;0.20;;;;;;;;;;4930939;29;20036;-89
2021/06/20 06:31:31;;;;;;;0.30;0.30;;;;;;;;;;4915717;29;20044;-88
2021/06/20 06:33:57;;;;;;;0.20;0.20;;;;;;;;;;4916461;29;20040;-88
2021/06/20 06:36:23;;;;;;;0.20;0.20;;;;;;;;;;4931326;29;20087;-88
2021/06/20 06:38:49;;;;;;;0.30;0.30;;;;;;;;;;4931313;29;20044;-89
2021/06/20 06:41:18;;;;;;;0.10;0.10;;;;;;;;;;4914797;29;20040;-90
2021/06/20 06:43:45;;;;;;;0.20;0.20;;;;;;;;;;4931755;29;20072;-88
2021/06/20 06:46:11;;;;;;;0.30;0.30;;;;;;;;;;4931118;29;20051;-88
2021/06/20 06:48:37;;;;;;;0.90;0.90;;;;;;;;;;4930971;29;20096;-88
2021/06/20 06:51:03;;;;;;;0.15;0.15;;;;;;;;;;4915261;29;20501;-88
2021/06/20 06:53:30;;;;;;;0.20;0.20;;;;;;;;;;4915175;29;20506;-88
2021/06/20 06:55:57;;;;;;;0.10;0.10;;;;;;;;;;4916367;29;20395;-88
2021/06/20 06:58:23;;;;;;;0.10;0.10;;;;;;;;;;4899077;29;20044;-89
2021/06/20 07:00:49;;;;;;;1.55;1.45;;;;;;;;;;4915023;29;20509;-88
2021/06/20 07:03:15;;;;;;;0.43;0.43;;;;;;;;;;4930699;29;20450;-87
2021/06/20 07:05:41;;;;;;;0.20;0.20;;;;;;;;;;4914964;29;20040;-90
2021/06/20 07:08:07;;;;;;;0.10;0.10;;;;;;;;;;4930772;29;20112;-88
2021/06/20 07:10:33;;;;;;;2.05;0.30;;;;;;;;;;4915168;29;20454;-88
2021/06/20 07:13:00;;;;;;;0.10;0.10;;;;;;;;;;4916050;29;20047;-88
2021/06/20 07:15:26;;;;;;;0.65;0.65;;;;;;;;;;4930733;29;20079;-88
2021/06/20 07:17:52;;;;;;;0.10;0.10;;;;;;;;;;4914737;29;20051;-87
2021/06/20 07:20:18;;;;;;;0.30;0.30;;;;;;;;;;4914838;29;20036;-89
2021/06/20 07:22:48;;;;;;;0.20;0.20;;;;;;;;;;4915990;29;20119;-89
2021/06/20 07:25:15;;;;;;;0.45;0.40;;;;;;;;;;4916010;29;20047;-85
2021/06/20 07:27:41;;;;;;;0.43;0.30;;;;;;;;;;4914331;29;20040;-92
2021/06/20 07:30:08;;;;;;;0.20;0.20;;;;;;;;;;4930514;29;20046;-84
2021/06/20 07:32:34;;;;;;;0.50;0.50;;;;;;;;;;4915781;29;20052;-86
2021/06/20 07:35:01;;;;;;;0.20;0.20;;;;;;;;;;4914622;29;20048;-84
2021/06/20 07:37:27;;;;;;;0.20;0.20;;;;;;;;;;4914608;29;20074;-88
2021/06/20 07:39:53;;;;;;;0.30;0.20;;;;;;;;;;4914611;29;20485;-87
2021/06/20 07:42:19;;;;;;;0.10;0.10;;;;;;;;;;4915711;29;20052;-87
2021/06/20 07:44:46;;;;;;;0.30;0.30;;;;;;;;;;4914642;29;20447;-87
2021/06/20 07:47:12;;;;;;;0.20;0.20;;;;;;;;;;4914633;29;20044;-86
2021/06/20 07:49:38;;;;;;;0.10;0.10;;;;;;;;;;4915873;29;20088;-85
2021/06/20 07:52:04;;;;;;;0.32;0.32;;;;;;;;;;4914413;29;20398;-85
2021/06/20 07:54:30;;;;;;;0.13;0.13;;;;;;;;;;4914364;29;20048;-85
2021/06/20 07:56:56;;;;;;;0.20;0.20;;;;;;;;;;4915598;29;20503;-85
2021/06/20 07:59:22;;;;;;;0.20;0.20;;;;;;;;;;4915526;29;20051;-85
2021/06/20 08:01:48;;;;;;;0.20;0.20;;;;;;;;;;4915514;29;20524;-91
2021/06/20 08:04:14;;;;;;;0.10;0.10;;;;;;;;;;4930256;29;20032;-87
2021/06/20 08:06:40;;;;;;;0.10;0.10;;;;;;;;;;4915656;29;20040;-87
2021/06/20 08:09:06;;;;;;;0.30;0.30;;;;;;;;;;4914251;29;20055;-88
2021/06/20 08:11:33;;;;;;;0.10;0.10;;;;;;;;;;4914149;29;20127;-87
2021/06/20 08:13:59;;;;;;;0.10;0.10;;;;;;;;;;4914214;29;20463;-87
2021/06/20 08:16:26;;;;;;;0.20;0.20;;;;;;;;;;4914394;29;20513;-86
2021/06/20 08:18:52;;;;;;;0.20;0.20;;;;;;;;;;4914289;29;20402;-87
2021/06/20 08:21:18;;;;;;;0.10;0.10;;;;;;;;;;4915293;29;20044;-86
2021/06/20 08:23:44;;;;;;;0.10;0.10;;;;;;;;;;4915396;29;20043;-86
2021/06/20 08:26:10;;;;;;;0.10;0.10;;;;;;;;;;4930126;29;20501;-86
2021/06/20 08:28:36;;;;;;;0.10;0.10;;;;;;;;;;4915163;29;20483;-87
2021/06/20 08:31:02;;;;;;;0.17;0.17;;;;;;;;;;4914029;29;20048;-86
2021/06/20 08:33:28;;;;;;;0.10;0.10;;;;;;;;;;4930055;29;20100;-86
2021/06/20 08:35:54;;;;;;;0.17;0.17;;;;;;;;;;4914071;29;20044;-86
2021/06/20 08:38:21;;;;;;;0.10;0.10;;;;;;;;;;4914105;29;20032;-86
2021/06/20 08:40:47;;;;;;;0.10;0.10;;;;;;;;;;4915293;29;20127;-86
2021/06/20 08:43:13;;;;;;;0.20;0.20;;;;;;;;;;4917442;29;20047;-85
2021/06/20 08:45:40;;;;;;;0.10;0.10;;;;;;;;;;4918701;29;20048;-88
2021/06/20 08:48:07;;;;;;;0.10;0.10;;;;;;;;;;4917316;29;20161;-87
2021/06/20 08:50:33;;;;;;;0.10;0.10;;;;;;;;;;4933247;29;20040;-87
2021/06/20 08:52:59;;;;;;;0.10;0.10;;;;;;;;;;4917408;29;20055;-93
2021/06/20 08:55:25;;;;;;;0.10;0.10;;;;;;;;;;4917434;29;20032;-85
2021/06/20 08:57:59;;;;;;;0.10;0.10;;;;;;;;;;4933059;29;20040;-89
2021/06/20 09:00:25;;;;;;;0.20;0.20;;;;;;;;;;4934268;29;20072;-87
2021/06/20 09:03:01;;;;;;;0.10;0.10;;;;;;;;;;4917193;29;20072;-86
2021/06/20 09:05:27;;;;;;;0.10;0.10;;;;;;;;;;4933008;29;20032;-88
2021/06/20 09:07:53;;;;;;;0.10;0.10;;;;;;;;;;4932973;29;20100;-86
2021/06/20 09:10:20;;;;;;;0.10;0.10;;;;;;;;;;4916716;29;20414;-85
2021/06/20 09:12:56;;;;;;;0.20;0.20;;;;;;;;;;4918152;29;20047;-85
2021/06/20 09:15:23;;;;;;;0.10;0.10;;;;;;;;;;4918134;29;20044;-86
2021/06/20 09:17:50;;;;;;;0.10;0.10;;;;;;;;;;4916830;29;20036;-87
2021/06/20 09:20:16;;;;;;;0.10;0.10;;;;;;;;;;4933061;29;20072;-88
2021/06/20 09:22:42;;;;;;;0.10;0.10;;;;;;;;;;4917110;29;20482;-89
2021/06/20 09:25:11;;;;;;;0.20;0.20;;;;;;;;;;4916882;29;20627;-89
2021/06/20 09:27:37;;;;;;;0.10;0.10;;;;;;;;;;4932753;29;20082;-88
2021/06/20 09:30:13;;;;;;;0.10;0.10;;;;;;;;;;4917816;29;20398;-88
2021/06/20 09:32:59;;;;;;;0.10;0.10;;;;;;;;;;4914047;29;20101;-88
2021/06/20 09:35:26;;;;;;;0.17;0.17;;;;;;;;;;4948021;29;20115;-88
2021/06/20 09:37:55;;;;;;;0.10;0.10;;;;;;;;;;4916428;29;20040;-88
2021/06/20 09:40:29;;;;;;;0.10;0.10;;;;;;;;;;4932085;29;20044;-88
2021/06/20 09:42:55;;;;;;;0.10;0.10;;;;;;;;;;4932469;29;20078;-90
2021/06/20 09:45:31;;;;;;;0.10;0.10;;;;;;;;;;4916313;29;20043;-89
2021/06/20 09:47:59;;;;;;;0.10;0.10;;;;;;;;;;4931746;29;20095;-87
2021/06/20 09:50:38;;;;;;;0.10;0.10;;;;;;;;;;4916171;29;20118;-89
2021/06/20 09:53:04;;;;;;;0.10;0.10;;;;;;;;;;4916116;29;20048;-90
2021/06/20 09:55:30;;;;;;;0.10;0.10;;;;;;;;;;4932387;29;20044;-87
2021/06/20 09:57:58;;;;;;;0.10;0.10;;;;;;;;;;4917217;29;20036;-87
2021/06/20 10:00:24;;;;;;;0.20;0.20;;;;;;;;;;4931955;29;20235;-87
2021/06/20 10:02:50;;;;;;;0.10;0.10;;;;;;;;;;4915961;29;20521;-87
2021/06/20 10:05:19;;;;;;;0.10;0.10;;;;;;;;;;4917084;29;20048;-87
2021/06/20 10:07:45;;;;;;;0.10;0.10;;;;;;;;;;4915996;29;20546;-87
2021/06/20 10:10:11;;;;;;;0.10;0.10;;;;;;;;;;4916922;29;20048;-87
2021/06/20 10:12:37;;;;;;;0.10;0.10;;;;;;;;;;4915835;29;20040;-86
2021/06/20 10:15:04;;;;;;;0.10;0.10;;;;;;;;;;4915560;29;20044;-87
2021/06/20 10:17:31;;;;;;;0.20;0.20;;;;;;;;;;4931501;29;20115;-87
2021/06/20 10:19:58;;;;;;;0.10;0.10;;;;;;;;;;4916824;29;20044;-86
2021/06/20 10:22:24;;;;;;;0.10;0.10;;;;;;;;;;4915625;29;20060;-88
2021/06/20 10:24:56;;;;;;;0.10;0.10;;;;;;;;;;4916717;29;20479;-87
2021/06/20 10:27:32;;;;;;;0.10;0.10;;;;;;;;;;4915378;29;20141;-85
2021/06/20 10:29:59;;;;;;;0.20;0.20;;;;;;;;;;4915576;29;20036;-86
2021/06/20 10:32:26;;;;;;;0.10;0.10;;;;;;;;;;4916575;29;20103;-87
2021/06/20 10:34:57;;;;;;;0.20;0.20;;;;;;;;;;4915352;29;20131;-87
2021/06/20 10:37:23;;;;;;;0.10;0.10;;;;;;;;;;4915311;29;20039;-87
2021/06/20 10:39:54;;;;;;;0.20;0.20;;;;;;;;;;4915293;29;20048;-86
2021/06/20 10:42:20;;;;;;;0.10;0.10;;;;;;;;;;4931052;29;20044;-87
2021/06/20 10:44:50;;;;;;;0.10;0.10;;;;;;;;;;4931328;29;20040;-87
2021/06/20 10:47:26;;;;;;;0.10;0.10;;;;;;;;;;4915303;29;20497;-87
2021/06/20 10:49:54;;;;;;;0.10;0.10;;;;;;;;;;4914922;29;20044;-86
2021/06/20 10:52:20;;;;;;;0.10;0.10;;;;;;;;;;4914572;29;20048;-86
2021/06/20 10:54:52;;;;;;;0.20;0.20;;;;;;;;;;4916466;29;20075;-85
2021/06/20 10:57:25;;;;;;;0.10;0.10;;;;;;;;;;4931814;29;20040;-85
2021/06/20 10:59:57;;;;;;;0.20;0.20;;;;;;;;;;4915132;29;20119;-85
2021/06/20 11:02:33;;;;;;;0.20;0.20;;;;;;;;;;4914839;29;20044;-85
2021/06/20 11:05:00;;;;;;;0.10;0.10;;;;;;;;;;4930387;29;20043;-86
2021/06/20 11:07:29;;;;;;;0.10;0.10;;;;;;;;;;4914941;29;20045;-85
2021/06/20 11:09:55;;;;;;;0.10;0.10;;;;;;;;;;4931022;29;20131;-85
2021/06/20 11:12:22;;;;;;;0.10;0.10;;;;;;;;;;4915908;29;20040;-85
2021/06/20 11:14:49;;;;;;;0.10;0.10;;;;;;;;;;4916121;29;20486;-85
2021/06/20 11:17:15;;;;;;;0.10;0.10;;;;;;;;;;4930904;29;20156;-85
2021/06/20 11:19:41;;;;;;;0.15;0.15;;;;;;;;;;4930697;29;20044;-86
2021/06/20 11:22:08;;;;;;;0.10;0.10;;;;;;;;;;4914967;29;20141;-84
2021/06/20 11:24:35;;;;;;;0.10;0.10;;;;;;;;;;4916046;29;20128;-85
2021/06/20 11:27:01;;;;;;;0.20;0.20;;;;;;;;;;4914672;29;20047;-85
2021/06/20 11:29:47;;;;;;;0.10;0.10;;;;;;;;;;4915982;29;20200;-85
2021/06/20 11:32:16;;;;;;;0.10;0.10;;;;;;;;;;4914599;29;20060;-86
2021/06/20 11:34:43;;;;;;;0.10;0.10;;;;;;;;;;4915866;29;20040;-85
2021/06/20 11:37:19;;;;;;;0.10;0.10;;;;;;;;;;4914640;29;20051;-87
2021/06/20 11:39:48;;;;;;;0.10;0.10;;;;;;;;;;4914897;29;20487;-85
2021/06/20 11:42:22;;;;;;;0.10;0.10;;;;;;;;;;4930943;29;20048;-86
2021/06/20 11:44:55;;;;;;;0.10;0.10;;;;;;;;;;4914839;29;20335;-86
2021/06/20 11:47:28;;;;;;;0.10;0.10;;;;;;;;;;4914504;29;20044;-86
2021/06/20 11:49:55;;;;;;;0.10;0.10;;;;;;;;;;4915726;29;20518;-86
2021/06/20 11:52:22;;;;;;;0.10;0.10;;;;;;;;;;4914494;29;20123;-86
2021/06/20 11:54:48;;;;;;;0.10;0.10;;;;;;;;;;4915793;29;20447;-86
2021/06/20 11:57:14;;;;;;;0.10;0.10;;;;;;;;;;4914416;29;20068;-86
2021/06/20 11:59:41;;;;;;;0.10;0.10;;;;;;;;;;4914816;29;20119;-86
2021/06/20 12:02:07;;;;;;;0.10;0.10;;;;;;;;;;4915575;29;20040;-86
2021/06/20 12:04:33;;;;;;;0.10;0.10;;;;;;;;;;4945975;29;20046;-86
2021/06/20 12:07:06;;;;;;;0.10;0.10;;;;;;;;;;4945882;28;20052;-87
2021/06/20 12:09:32;;;;;;;0.20;0.20;;;;;;;;;;4915268;29;20455;-85
2021/06/20 12:11:59;;;;;;;0.10;0.10;;;;;;;;;;4929920;29;20048;-85
2021/06/20 12:14:25;;;;;;;0.10;0.10;;;;;;;;;;4915121;29;20036;-86
2021/06/20 12:16:52;;;;;;;0.20;0.20;;;;;;;;;;4949460;28;20036;-86
2021/06/20 12:19:18;;;;;;;0.20;0.20;;;;;;;;;;4919242;29;20045;-88
2021/06/20 12:21:44;;;;;;;0.20;0.20;;;;;;;;;;4932859;29;20391;-86
2021/06/20 12:24:12;;;;;;;0.10;0.10;;;;;;;;;;4917706;29;20048;-86
2021/06/20 12:26:38;;;;;;;0.10;0.10;;;;;;;;;;4933098;29;20044;-85
2021/06/20 12:29:05;;;;;;;0.10;0.10;;;;;;;;;;4932650;29;20047;-85
2021/06/20 12:31:31;;;;;;;0.10;0.10;;;;;;;;;;4933222;29;20082;-85
2021/06/20 12:34:07;;;;;;;0.20;0.20;;;;;;;;;;4949343;29;20040;-86
2021/06/20 12:36:33;;;;;;;0.10;0.10;;;;;;;;;;4948849;29;20032;-87
2021/06/20 12:39:00;;;;;;;0.10;0.10;;;;;;;;;;4933480;29;20067;-85
2021/06/20 12:41:27;;;;;;;0.17;0.17;;;;;;;;;;4933627;29;20047;-86
2021/06/20 12:44:03;;;;;;;0.10;0.10;;;;;;;;;;4949277;29;20040;-88
2021/06/20 12:46:30;;;;;;;0.10;0.10;;;;;;;;;;4949163;28;20079;-86
2021/06/20 12:48:59;;;;;;;0.10;0.10;;;;;;;;;;4918605;29;20040;-84
2021/06/20 12:51:33;;;;;;;0.10;0.10;;;;;;;;;;4933337;29;20166;-84
2021/06/20 12:54:03;;;;;;;0.10;0.10;;;;;;;;;;4916464;29;20048;-84
2021/06/20 12:56:29;;;;;;;0.10;0.10;;;;;;;;;;4948773;29;20099;-85
2021/06/20 12:58:56;;;;;;;0.10;0.10;;;;;;;;;;4932912;29;20047;-83
2021/06/20 13:01:22;;;;;;;0.10;0.10;;;;;;;;;;4918372;29;20044;-84
2021/06/20 13:03:48;;;;;;;0.10;0.10;;;;;;;;;;4918247;29;20044;-84
2021/06/20 13:06:14;;;;;;;0.20;0.20;;;;;;;;;;4948646;29;20054;-85
2021/06/20 13:08:40;;;;;;;0.10;0.10;;;;;;;;;;4932670;29;20063;-85
2021/06/20 13:11:06;;;;;;;0.20;0.20;;;;;;;;;;4948808;29;20051;-84
2021/06/20 13:13:32;;;;;;;0.10;0.10;;;;;;;;;;4948825;29;20036;-85
2021/06/20 13:15:58;;;;;;;0.10;0.10;;;;;;;;;;4918082;29;20119;-84
2021/06/20 13:18:24;;;;;;;0.10;0.10;;;;;;;;;;4948297;28;20044;-84
2021/06/20 13:20:50;;;;;;;0.10;0.10;;;;;;;;;;4948595;29;20044;-85
2021/06/20 13:23:17;;;;;;;0.10;0.10;;;;;;;;;;4948934;29;20124;-85
2021/06/20 13:25:46;;;;;;;0.13;0.13;;;;;;;;;;4948094;29;20048;-85
2021/06/20 13:28:12;;;;;;;0.20;0.20;;;;;;;;;;4931811;29;20037;-85
2021/06/20 13:30:38;;;;;;;0.10;0.10;;;;;;;;;;4932480;29;20059;-86
2021/06/20 13:33:04;;;;;;;0.10;0.10;;;;;;;;;;4917849;29;20040;-85
2021/06/20 13:35:30;;;;;;;0.10;0.10;;;;;;;;;;4948207;29;20088;-85
2021/06/20 13:37:56;;;;;;;0.10;0.10;;;;;;;;;;4948084;28;20430;-87
2021/06/20 13:40:22;;;;;;;0.15;0.15;;;;;;;;;;4948376;29;20115;-86
2021/06/20 13:42:49;;;;;;;0.10;0.10;;;;;;;;;;4948467;29;20047;-89
2021/06/20 13:45:17;;;;;;;0.10;0.10;;;;;;;;;;4948047;29;20056;-86
2021/06/20 13:47:44;;;;;;;0.17;0.17;;;;;;;;;;4947644;28;20044;-85
2021/06/20 13:50:10;;;;;;;0.10;0.10;;;;;;;;;;4947364;29;20099;-86
2021/06/20 13:52:37;;;;;;;0.10;0.10;;;;;;;;;;4916422;29;20051;-86
2021/06/20 13:55:06;;;;;;;0.10;0.10;;;;;;;;;;4916217;29;20036;-87
2021/06/20 13:57:32;;;;;;;0.10;0.10;;;;;;;;;;4932691;29;20095;-86
2021/06/20 13:59:59;;;;;;;0.10;0.10;;;;;;;;;;4915908;29;20040;-87
2021/06/20 14:02:25;;;;;;;0.20;0.20;;;;;;;;;;4916353;29;20040;-87
2021/06/20 14:04:51;;;;;;;0.20;0.20;;;;;;;;;;4916533;29;20036;-88
2021/06/20 14:07:17;;;;;;;0.10;0.10;;;;;;;;;;4915482;29;20111;-85
2021/06/20 14:09:43;;;;;;;0.10;0.10;;;;;;;;;;4917407;29;20135;-88
2021/06/20 14:12:09;;;;;;;0.20;0.20;;;;;;;;;;4947682;29;20055;-85
2021/06/20 14:14:35;;;;;;;0.10;0.10;;;;;;;;;;4947119;29;20128;-93
2021/06/20 14:17:01;;;;;;;0.10;0.10;;;;;;;;;;4931615;29;20391;-91
2021/06/20 14:19:27;;;;;;;0.10;0.10;;;;;;;;;;4931803;29;20043;-88
2021/06/20 14:21:54;;;;;;;0.10;0.10;;;;;;;;;;4915930;29;20039;-85
2021/06/20 14:24:20;;;;;;;0.10;0.10;;;;;;;;;;4917097;29;20505;-85
2021/06/20 14:26:46;;;;;;;0.10;0.10;;;;;;;;;;4916828;29;20081;-85
2021/06/20 14:29:12;;;;;;;0.10;0.10;;;;;;;;;;4916742;29;20464;-85
2021/06/20 14:31:38;;;;;;;0.10;0.10;;;;;;;;;;4931490;29;20123;-86
2021/06/20 14:34:04;;;;;;;0.10;0.10;;;;;;;;;;4915665;29;20044;-86
2021/06/20 14:36:31;;;;;;;0.10;0.10;;;;;;;;;;4915591;29;20374;-85
2021/06/20 14:38:57;;;;;;;0.10;0.10;;;;;;;;;;4914591;29;20127;-84
2021/06/20 14:41:23;;;;;;;0.10;0.10;;;;;;;;;;4915609;29;20048;-85